Big Bear Station Historical Data
Daily Summary for September 18, 2017 Units:  English    Metric   Both
« Previous Day
Next Day »
Daily Weekly Monthly Yearly Custom
  High: Low: Average:
Temperature: 70.3 °F 39.9 °F 53.7 °F
Dew Point: 43.9 °F 29.2 °F 37.4 °F
Humidity: 90 % 25 % 58 %
Wind Speed: 7.3 mph 0.0 mph 1.8 mph
Wind Gust: -999.0 mph - -
Wind:- - WSW
Pressure: 30.20 in 30.16 in -
Precipitation: 0.00 in    
Historical Graphs
 
 
Tabular Data for September 18, 2017
Time Temperature Dew Point Pressure Wind Wind Speed Wind Gust Humidity Rainfall Rate (Hourly)
00:10 45.7 °F 36.8 °F 30.20 in Calm   -999.0 mph 71 % 0 in
00:26 45.5 °F 36.6 °F 30.20 in Calm   -999.0 mph 71 % 0 in
00:41 45.3 °F 36.8 °F 30.20 in Calm   -999.0 mph 72 % 0 in
00:56 45.0 °F 37.6 °F 30.20 in Calm   -999.0 mph 75 % 0 in
01:11 44.6 °F 37.8 °F 30.20 in Calm   -999.0 mph 77 % 0 in
01:27 44.2 °F 36.4 °F 30.20 in Calm   -999.0 mph 74 % 0 in
01:42 44.1 °F 36.3 °F 30.19 in Calm   -999.0 mph 74 % 0 in
01:57 43.9 °F 36.5 °F 30.19 in Calm   -999.0 mph 75 % 0 in
02:12 43.5 °F 36.8 °F 30.19 in Calm   -999.0 mph 77 % 0 in
02:27 43.5 °F 37.1 °F 30.19 in Calm   -999.0 mph 78 % 0 in
02:43 43.2 °F 36.8 °F 30.19 in Calm   -999.0 mph 78 % 0 in
02:58 43.0 °F 37.6 °F 30.19 in Calm   -999.0 mph 81 % 0 in
03:13 42.8 °F 38.0 °F 30.19 in Calm   -999.0 mph 83 % 0 in
03:28 42.6 °F 38.1 °F 30.18 in Calm   -999.0 mph 84 % 0 in
03:43 42.3 °F 37.5 °F 30.18 in Calm   -999.0 mph 83 % 0 in
03:59 42.1 °F 37.6 °F 30.18 in Calm   -999.0 mph 84 % 0 in
04:14 41.7 °F 37.5 °F 30.18 in Calm   -999.0 mph 85 % 0 in
04:29 41.5 °F 37.6 °F 30.18 in Calm   -999.0 mph 86 % 0 in
04:44 41.5 °F 37.6 °F 30.18 in Calm   -999.0 mph 86 % 0 in
04:59 41.2 °F 37.6 °F 30.18 in Calm   -999.0 mph 87 % 0 in
05:15 41.2 °F 37.6 °F 30.18 in Calm   -999.0 mph 87 % 0 in
05:30 41.0 °F 37.4 °F 30.18 in Calm   -999.0 mph 87 % 0 in
05:45 40.6 °F 37.0 °F 30.18 in Calm   -999.0 mph 87 % 0 in
06:00 40.5 °F 36.6 °F 30.18 in Calm   -999.0 mph 86 % 0 in
06:15 40.3 °F 36.7 °F 30.18 in Calm   -999.0 mph 87 % 0 in
06:31 40.1 °F 36.5 °F 30.18 in Calm   -999.0 mph 87 % 0 in
07:01 39.9 °F 36.6 °F 30.18 in Calm   -999.0 mph 88 % 0 in
07:16 40.3 °F 36.7 °F 30.18 in Calm   -999.0 mph 87 % 0 in
07:31 40.3 °F 36.7 °F 30.18 in Calm   -999.0 mph 87 % 0 in
07:47 40.8 °F 37.2 °F 30.19 in Calm   -999.0 mph 87 % 0 in
08:02 42.3 °F 39.0 °F 30.19 in Calm   -999.0 mph 88 % 0 in
08:17 42.8 °F 40.1 °F 30.19 in Calm   -999.0 mph 90 % 0 in
08:32 44.6 °F 41.8 °F 30.19 in Calm   -999.0 mph 90 % 0 in
08:48 46.9 °F 42.9 °F 30.19 in Calm   -999.0 mph 86 % 0 in
09:03 49.8 °F 43.9 °F 30.19 in Calm   -999.0 mph 80 % 0 in
09:18 53.2 °F 42.1 °F 30.19 in Calm   -999.0 mph 66 % 0 in
09:33 55.6 °F 41.1 °F 30.20 in Calm   -999.0 mph 58 % 0 in
09:48 57.6 °F 41.1 °F 30.20 in WSW 2.2 mph -999.0 mph 54 % 0 in
10:04 58.8 °F 40.2 °F 30.20 in NNW 4.2 mph -999.0 mph 50 % 0 in
10:19 60.1 °F 40.9 °F 30.20 in WNW 2.7 mph -999.0 mph 49 % 0 in
10:34 61.3 °F 39.8 °F 30.20 in NW 4.2 mph -999.0 mph 45 % 0 in
10:50 64.2 °F 40.0 °F 30.20 in NW 4.7 mph -999.0 mph 41 % 0 in
11:05 66.6 °F 40.2 °F 30.20 in NW 3.7 mph -999.0 mph 38 % 0 in
11:20 67.6 °F 40.4 °F 30.20 in WNW 5.3 mph -999.0 mph 37 % 0 in
11:35 67.8 °F 40.6 °F 30.20 in WNW 5.3 mph -999.0 mph 37 % 0 in
11:51 67.8 °F 42.6 °F 30.20 in NW 6.3 mph -999.0 mph 40 % 0 in
12:06 68.7 °F 42.7 °F 30.20 in North 4.7 mph -999.0 mph 39 % 0 in
12:21 68.7 °F 40.7 °F 30.20 in WNW 2.7 mph -999.0 mph 36 % 0 in
12:37 69.8 °F 37.0 °F 30.19 in NW 2.2 mph -999.0 mph 30 % 0 in
12:52 70.3 °F 38.2 °F 30.19 in West 6.3 mph -999.0 mph 31 % 0 in
13:07 69.8 °F 41.6 °F 30.19 in NNW 4.7 mph -999.0 mph 36 % 0 in
13:23 68.2 °F 40.2 °F 30.19 in NE 7.3 mph -999.0 mph 36 % 0 in
13:38 69.6 °F 36.8 °F 30.18 in SSW 3.7 mph -999.0 mph 30 % 0 in
13:53 69.6 °F 35.9 °F 30.18 in NW 5.3 mph -999.0 mph 29 % 0 in
14:08 69.3 °F 37.4 °F 30.18 in NW 5.3 mph -999.0 mph 31 % 0 in
14:24 67.8 °F 37.6 °F 30.18 in West 6.3 mph -999.0 mph 33 % 0 in
14:39 67.3 °F 37.2 °F 30.18 in North 7.3 mph -999.0 mph 33 % 0 in
14:54 67.6 °F 34.2 °F 30.18 in ESE 4.2 mph -999.0 mph 29 % 0 in
15:10 67.3 °F 36.4 °F 30.18 in WSW 1.1 mph -999.0 mph 32 % 0 in
15:25 68.4 °F 39.7 °F 30.18 in West 4.2 mph -999.0 mph 35 % 0 in
15:40 67.3 °F 38.0 °F 30.18 in NNW 2.7 mph -999.0 mph 34 % 0 in
15:56 66.2 °F 37.7 °F 30.18 in SW 2.2 mph -999.0 mph 35 % 0 in
16:11 64.9 °F 36.6 °F 30.18 in South 1.1 mph -999.0 mph 35 % 0 in
16:26 64.2 °F 35.2 °F 30.18 in NW 5.3 mph -999.0 mph 34 % 0 in
16:42 64.2 °F 31.3 °F 30.18 in NNW 3.7 mph -999.0 mph 29 % 0 in
16:57 66.0 °F 29.2 °F 30.18 in North 4.2 mph -999.0 mph 25 % 0 in
17:12 65.3 °F 30.5 °F 30.18 in NW 4.2 mph -999.0 mph 27 % 0 in
17:27 63.7 °F 34.0 °F 30.18 in SW 2.7 mph -999.0 mph 33 % 0 in
17:43 62.1 °F 38.1 °F 30.17 in West 5.3 mph -999.0 mph 41 % 0 in
17:58 61.0 °F 37.7 °F 30.17 in South 6.3 mph -999.0 mph 42 % 0 in
18:13 59.5 °F 39.8 °F 30.17 in NNW 3.7 mph -999.0 mph 48 % 0 in
18:28 58.5 °F 36.7 °F 30.17 in South 4.2 mph -999.0 mph 44 % 0 in
18:43 57.2 °F 37.7 °F 30.17 in WNW 3.2 mph -999.0 mph 48 % 0 in
18:59 56.1 °F 38.2 °F 30.17 in Calm   -999.0 mph 51 % 0 in
19:14 54.7 °F 38.4 °F 30.18 in Calm   -999.0 mph 54 % 0 in
19:29 53.1 °F 33.4 °F 30.17 in Calm   -999.0 mph 47 % 0 in
19:44 52.3 °F 34.7 °F 30.17 in ESE 1.1 mph -999.0 mph 51 % 0 in
20:00 52.0 °F 32.9 °F 30.18 in Calm   -999.0 mph 48 % 0 in
20:15 52.3 °F 34.2 °F 30.18 in NNE 1.1 mph -999.0 mph 50 % 0 in
20:30 52.2 °F 34.6 °F 30.18 in Calm   -999.0 mph 51 % 0 in
20:45 52.0 °F 34.4 °F 30.17 in Calm   -999.0 mph 51 % 0 in
21:00 51.1 °F 34.1 °F 30.17 in SSW 1.7 mph -999.0 mph 52 % 0 in
21:16 50.7 °F 33.7 °F 30.17 in Calm   -999.0 mph 52 % 0 in
21:31 50.5 °F 34.9 °F 30.17 in SE 1.7 mph -999.0 mph 55 % 0 in
21:46 50.9 °F 35.8 °F 30.16 in Calm   -999.0 mph 56 % 0 in
22:01 50.9 °F 35.8 °F 30.17 in SSW 1.7 mph -999.0 mph 56 % 0 in
22:16 50.7 °F 36.0 °F 30.16 in South 2.7 mph -999.0 mph 57 % 0 in
22:32 50.4 °F 36.6 °F 30.16 in SE 1.7 mph -999.0 mph 59 % 0 in
22:47 49.8 °F 36.5 °F 30.16 in Calm   -999.0 mph 60 % 0 in
23:02 49.5 °F 37.0 °F 30.16 in Calm   -999.0 mph 62 % 0 in
23:17 49.5 °F 36.6 °F 30.16 in Calm   -999.0 mph 61 % 0 in
23:32 50.0 °F 37.1 °F 30.16 in Calm   -999.0 mph 61 % 0 in
23:48 50.9 °F 36.6 °F 30.16 in WSW 1.1 mph -999.0 mph 58 % 0 in
Big Bear CA Weather
Compliments of Weather Underground - 1.5 mb